Time;durP1;ratioP1;P1;durP2;ratioP2;P2;SDS_P1;SDS_P2;PMS_P1;PMS_P2;Temp;Humidity;BMP_temperature;BMP_pressure;BME280_temperature;BME280_humidity;BME280_pressure;Samples;Min_cycle;Max_cycle;Signal;HPM_P1;HPM_P2
2021/09/14 00:01:56;;;;;;;12.48;5.95;;;16.00;99.90;;;;;;8354803;28;20053;-73
2021/09/14 00:05:58;;;;;;;11.65;5.15;;;16.00;99.90;;;;;;8354350;28;20043;-73
2021/09/14 00:10:01;;;;;;;10.52;5.28;;;15.90;99.90;;;;;;8354436;28;20460;-73
2021/09/14 00:14:03;;;;;;;9.60;5.07;;;15.90;99.90;;;;;;8350840;28;20489;-73
2021/09/14 00:18:05;;;;;;;;;;;15.90;99.90;;;;;;8353042;28;20067;-73
2021/09/14 00:22:06;;;;;;;;;;;15.90;99.90;;;;;;8349453;28;20367;-73
2021/09/14 00:26:08;;;;;;;;;;;15.90;99.90;;;;;;8354305;28;19932;-73
2021/09/14 00:30:11;;;;;;;;;;;15.90;99.90;;;;;;8358431;28;19927;-73
2021/09/14 00:34:13;;;;;;;9.95;4.97;;;15.80;99.90;;;;;;8357530;28;19931;-73
2021/09/14 00:38:15;;;;;;;10.32;5.30;;;15.80;99.90;;;;;;8356411;28;20041;-73
2021/09/14 00:42:17;;;;;;;10.15;4.82;;;15.80;99.90;;;;;;8353321;28;20046;-73
2021/09/14 00:46:18;;;;;;;9.35;4.90;;;15.80;99.90;;;;;;8356518;28;20057;-73
2021/09/14 00:50:20;;;;;;;10.10;5.20;;;15.70;99.90;;;;;;8363227;28;20049;-73
2021/09/14 00:54:23;;;;;;;8.93;5.50;;;15.70;99.90;;;;;;8353985;28;20045;-73
2021/09/14 00:58:25;;;;;;;11.82;5.43;;;15.70;99.90;;;;;;8362501;28;20052;-73
2021/09/14 01:02:27;;;;;;;11.45;5.30;;;15.70;99.90;;;;;;8358213;28;20049;-74
2021/09/14 01:06:29;;;;;;;9.43;5.60;;;15.70;99.90;;;;;;8354384;28;20045;-73
2021/09/14 01:10:31;;;;;;;10.45;5.03;;;15.70;99.90;;;;;;8359209;28;20052;-73
2021/09/14 01:14:32;;;;;;;10.13;5.43;;;15.70;99.90;;;;;;8359967;28;20041;-73
2021/09/14 01:18:34;;;;;;;10.52;5.88;;;15.60;99.90;;;;;;8370065;28;20045;-73
2021/09/14 01:22:36;;;;;;;10.70;5.67;;;15.60;99.90;;;;;;8354686;28;20151;-73
2021/09/14 01:26:38;;;;;;;10.38;5.50;;;15.60;99.90;;;;;;8350249;28;20651;-73
2021/09/14 01:30:39;;;;;;;12.07;5.40;;;15.60;99.90;;;;;;8359541;28;20052;-74
2021/09/14 01:34:41;;;;;;;;;;;15.60;99.90;;;;;;8359170;28;19959;-73
2021/09/14 01:38:43;;;;;;;;;;;15.60;99.90;;;;;;8361757;28;19925;-73
2021/09/14 01:42:45;;;;;;;11.40;6.10;;;15.50;99.90;;;;;;8362618;28;19924;-73
2021/09/14 01:46:48;;;;;;;11.13;6.25;;;15.50;99.90;;;;;;8356911;28;20056;-74
2021/09/14 01:50:50;;;;;;;12.80;6.53;;;15.50;99.90;;;;;;8353161;28;20068;-73
2021/09/14 01:54:51;;;;;;;13.20;6.43;;;15.50;99.90;;;;;;8357096;28;20049;-73
2021/09/14 01:58:53;;;;;;;11.77;6.15;;;15.50;99.90;;;;;;8355370;28;20093;-73
2021/09/14 02:03:19;;;;;;;11.45;6.68;;;15.50;99.90;;;;;;8354542;28;20079;-73
2021/09/14 02:59:08;;;;;;;;;;;15.50;99.90;;;;;;8360139;28;19921;-73
2021/09/14 03:03:10;;;;;;;;;;;15.40;99.90;;;;;;8351625;28;19928;-73
2021/09/14 03:07:11;;;;;;;;;;;15.40;99.90;;;;;;8348546;28;19975;-73
2021/09/14 03:11:14;;;;;;;;;;;15.40;99.90;;;;;;8358383;28;19932;-73
2021/09/14 03:15:16;;;;;;;;;;;15.40;99.90;;;;;;8352912;28;19925;-73
2021/09/14 03:19:18;;;;;;;10.07;6.60;;;15.30;99.90;;;;;;8352219;28;20059;-73
2021/09/14 03:23:19;;;;;;;13.35;7.25;;;15.30;99.90;;;;;;8351935;28;20049;-73
2021/09/14 03:27:21;;;;;;;12.50;7.10;;;15.20;99.90;;;;;;8359123;28;20485;-73
2021/09/14 03:31:23;;;;;;;12.15;7.05;;;15.20;99.90;;;;;;8353453;28;20048;-73
2021/09/14 03:35:24;;;;;;;12.13;6.85;;;15.20;99.90;;;;;;8350967;28;20105;-73
2021/09/14 03:39:26;;;;;;;13.07;6.78;;;15.10;99.90;;;;;;8353232;28;20041;-73
2021/09/14 03:43:28;;;;;;;14.13;7.57;;;15.10;99.90;;;;;;8350983;28;20397;-73
2021/09/14 03:47:29;;;;;;;13.50;6.95;;;15.10;99.90;;;;;;8358002;28;20056;-73
2021/09/14 03:51:31;;;;;;;12.38;6.65;;;15.00;99.90;;;;;;8354393;28;20067;-73
2021/09/14 03:55:33;;;;;;;12.05;6.70;;;15.00;99.90;;;;;;8356861;28;20129;-73
2021/09/14 03:59:39;;;;;;;10.40;6.75;;;15.00;99.90;;;;;;8351349;28;20496;-73
2021/09/14 04:03:44;;;;;;;12.13;7.03;;;14.90;99.90;;;;;;8357708;28;19927;-73
2021/09/14 04:08:49;;;;;;;11.93;6.95;;;14.90;99.90;;;;;;8350747;28;20037;-73
2021/09/14 04:12:13;;;;;;;11.85;7.25;;;14.90;99.90;;;;;;8354371;28;20041;-73
2021/09/14 04:16:15;;;;;;;13.43;7.85;;;14.90;99.90;;;;;;8353494;28;20053;-73
2021/09/14 04:20:16;;;;;;;12.98;7.63;;;14.80;99.90;;;;;;8347470;28;20461;-73
2021/09/14 04:24:18;;;;;;;14.40;7.03;;;14.80;99.90;;;;;;8348892;28;20045;-73
2021/09/14 04:28:21;;;;;;;13.52;7.22;;;14.80;99.90;;;;;;8360550;28;20049;-73
2021/09/14 04:32:26;;;;;;;12.02;6.95;;;14.70;99.90;;;;;;8357767;28;20445;-73
2021/09/14 04:36:27;;;;;;;13.50;7.38;;;14.70;99.90;;;;;;8360983;28;20064;-72
2021/09/14 04:40:30;;;;;;;12.30;7.72;;;14.70;99.90;;;;;;8356789;28;20053;-73
2021/09/14 04:44:32;;;;;;;13.00;7.82;;;14.70;99.90;;;;;;8359468;28;20049;-72
2021/09/14 04:48:34;;;;;;;14.20;7.55;;;14.60;99.90;;;;;;8361011;28;20061;-73
2021/09/14 04:52:35;;;;;;;12.07;7.47;;;14.60;99.90;;;;;;8358147;28;20045;-73
2021/09/14 04:56:37;;;;;;;13.27;7.07;;;14.60;99.90;;;;;;8354780;28;20053;-72
2021/09/14 05:00:39;;;;;;;13.90;6.90;;;14.60;99.90;;;;;;8356385;28;20569;-73
2021/09/14 05:04:40;;;;;;;14.15;7.55;;;14.60;99.90;;;;;;8360616;28;20208;-73
2021/09/14 05:08:42;;;;;;;12.45;7.00;;;14.60;99.90;;;;;;8359291;28;20531;-73
2021/09/14 05:12:44;;;;;;;;;;;14.50;99.90;;;;;;8351167;28;20049;-73
2021/09/14 05:16:45;;;;;;;12.52;7.32;;;14.50;99.90;;;;;;8357039;28;19979;-72
2021/09/14 05:20:49;;;;;;;12.80;7.35;;;14.50;99.90;;;;;;8353631;28;20412;-73
2021/09/14 05:24:51;;;;;;;15.57;7.97;;;14.50;99.90;;;;;;8356595;28;20053;-72
2021/09/14 05:28:53;;;;;;;13.90;7.63;;;14.50;99.90;;;;;;8350525;28;20079;-72
2021/09/14 05:32:55;;;;;;;14.77;8.27;;;14.50;99.90;;;;;;8357225;28;20408;-73
2021/09/14 05:36:56;;;;;;;14.20;8.13;;;14.50;99.90;;;;;;8355040;28;20049;-73
2021/09/14 05:40:58;;;;;;;;;;;14.50;99.90;;;;;;8351341;28;20094;-73
2021/09/14 05:45:00;;;;;;;13.63;8.00;;;14.50;99.90;;;;;;8348356;28;20096;-73
2021/09/14 05:49:02;;;;;;;14.57;8.57;;;14.60;99.90;;;;;;8352139;28;20052;-73
2021/09/14 05:53:04;;;;;;;15.05;8.13;;;14.60;99.90;;;;;;8354947;28;20053;-73
2021/09/14 05:57:05;;;;;;;15.82;8.40;;;14.60;99.90;;;;;;8354882;28;20057;-73
2021/09/14 06:01:08;;;;;;;15.07;8.77;;;14.70;99.90;;;;;;8357213;28;20052;-73
2021/09/14 06:05:10;;;;;;;17.67;9.02;;;14.70;99.90;;;;;;8359443;28;20041;-73
2021/09/14 06:09:12;;;;;;;15.10;8.65;;;14.80;99.90;;;;;;8360487;28;20404;-73
2021/09/14 06:13:14;;;;;;;14.35;8.75;;;14.90;99.90;;;;;;8354936;28;20124;-73
2021/09/14 06:17:16;;;;;;;14.20;8.38;;;14.90;99.90;;;;;;8356804;28;20047;-74
2021/09/14 06:21:18;;;;;;;14.45;9.15;;;14.90;99.90;;;;;;8349787;28;20057;-73
2021/09/14 06:25:20;;;;;;;14.57;8.73;;;14.90;99.90;;;;;;8354284;28;20053;-73
2021/09/14 06:29:22;;;;;;;19.02;9.00;;;14.90;99.90;;;;;;8353723;28;20049;-73
2021/09/14 06:33:24;;;;;;;18.40;9.00;;;14.90;99.90;;;;;;8360179;28;20041;-73
2021/09/14 06:37:25;;;;;;;16.92;9.57;;;14.90;99.90;;;;;;8361901;28;20233;-73
2021/09/14 06:41:28;;;;;;;15.30;8.70;;;14.90;99.90;;;;;;8358714;28;20056;-73
2021/09/14 06:45:30;;;;;;;15.73;9.05;;;15.00;99.90;;;;;;8352352;28;20533;-73
2021/09/14 06:49:32;;;;;;;13.77;8.95;;;14.90;99.90;;;;;;8347881;28;20037;-72
2021/09/14 06:53:33;;;;;;;17.02;9.50;;;14.90;99.90;;;;;;8354546;28;20045;-73
2021/09/14 06:57:35;;;;;;;16.67;9.13;;;14.90;99.90;;;;;;8358644;28;20047;-73
2021/09/14 07:01:37;;;;;;;15.13;8.82;;;14.90;99.90;;;;;;8353887;28;20045;-73
2021/09/14 07:05:39;;;;;;;17.35;9.80;;;14.90;99.90;;;;;;8354868;28;20049;-73
2021/09/14 07:09:42;;;;;;;16.73;9.25;;;14.90;99.90;;;;;;8349793;28;20041;-73
2021/09/14 07:13:43;;;;;;;17.75;9.73;;;15.00;99.90;;;;;;8354608;28;20037;-72
2021/09/14 07:17:45;;;;;;;19.70;9.88;;;15.00;99.90;;;;;;8351859;28;20045;-73
2021/09/14 07:21:47;;;;;;;18.65;10.00;;;15.10;99.90;;;;;;8344558;28;20566;-72
2021/09/14 07:25:49;;;;;;;20.20;10.40;;;15.20;99.90;;;;;;8335723;28;20049;-73
2021/09/14 07:29:51;;;;;;;17.02;9.68;;;15.20;99.90;;;;;;8343187;28;20060;-73
2021/09/14 07:33:53;;;;;;;15.70;9.90;;;15.30;99.90;;;;;;8337002;28;20042;-73
2021/09/14 07:37:55;;;;;;;15.88;9.95;;;15.40;99.90;;;;;;8338887;28;20056;-73
2021/09/14 07:41:58;;;;;;;18.95;9.98;;;15.50;99.90;;;;;;8341933;28;20445;-74
2021/09/14 07:46:00;;;;;;;16.50;10.35;;;15.60;99.90;;;;;;8334566;28;20048;-73
2021/09/14 07:50:04;;;;;;;17.93;10.40;;;15.80;99.90;;;;;;8340959;28;20045;-73
2021/09/14 07:54:06;;;;;;;18.40;9.80;;;15.90;99.90;;;;;;8333585;28;20484;-73
2021/09/14 07:58:07;;;;;;;;;;;16.00;99.90;;;;;;8335920;28;19931;-72
2021/09/14 08:02:09;;;;;;;;;;;16.10;99.90;;;;;;8328605;28;19921;-75
2021/09/14 08:06:10;;;;;;;;;;;16.20;99.90;;;;;;8330647;28;20478;-73
2021/09/14 08:10:12;;;;;;;;;;;16.40;99.90;;;;;;8334188;28;19924;-74
2021/09/14 08:14:14;;;;;;;;;;;16.50;99.90;;;;;;8328839;28;20209;-73
2021/09/14 08:18:15;;;;;;;;;;;16.70;99.90;;;;;;8331259;28;19948;-72
2021/09/14 08:22:19;;;;;;;;;;;16.90;99.90;;;;;;8327645;28;19928;-72
2021/09/14 08:26:20;;;;;;;18.77;10.70;;;17.00;99.90;;;;;;8334045;28;19925;-72
2021/09/14 08:30:22;;;;;;;18.92;11.10;;;17.20;99.90;;;;;;8336137;28;20057;-73
2021/09/14 08:34:24;;;;;;;16.23;10.55;;;17.40;99.90;;;;;;8332619;28;20049;-73
2021/09/14 08:38:27;;;;;;;19.73;11.20;;;17.50;99.90;;;;;;8329549;28;20041;-72
2021/09/14 08:42:33;;;;;;;18.20;11.80;;;17.50;99.90;;;;;;8328512;28;20074;-73
2021/09/14 08:46:35;;;;;;;19.33;11.25;;;17.50;99.90;;;;;;8337987;28;20051;-72
2021/09/14 08:50:37;;;;;;;16.42;10.40;;;17.50;99.90;;;;;;8335309;28;20045;-72
2021/09/14 08:54:39;;;;;;;16.25;10.77;;;17.60;99.90;;;;;;8331608;28;20053;-73
2021/09/14 08:58:41;;;;;;;16.63;10.70;;;17.60;99.90;;;;;;8330353;28;20064;-72
2021/09/14 09:02:53;;;;;;;17.20;11.10;;;17.70;99.90;;;;;;8328789;28;19941;-73
2021/09/14 09:06:56;;;;;;;16.45;10.85;;;17.90;99.90;;;;;;8326757;28;20476;-72
2021/09/14 09:10:57;;;;;;;;;;;18.10;99.90;;;;;;8335711;28;20336;-73
2021/09/14 09:14:59;;;;;;;;;;;18.20;99.90;;;;;;8334575;28;19998;-72
2021/09/14 09:19:03;;;;;;;;;;;18.30;99.90;;;;;;8333648;28;20636;-72
2021/09/14 09:23:06;;;;;;;;;;;18.40;99.90;;;;;;8337904;28;19928;-73
2021/09/14 09:27:10;;;;;;;;;;;18.60;99.90;;;;;;8337255;28;19959;-72
2021/09/14 09:31:12;;;;;;;;;;;18.70;99.90;;;;;;8340113;28;19970;-72
2021/09/14 09:35:27;;;;;;;;;;;18.90;99.90;;;;;;8336771;28;19932;-73
2021/09/14 09:39:35;;;;;;;;;;;19.00;99.90;;;;;;8337848;28;19936;-73
2021/09/14 09:43:37;;;;;;;;;;;19.20;99.90;;;;;;8337361;28;20034;-73
2021/09/14 09:47:39;;;;;;;;;;;19.30;99.90;;;;;;8341198;28;20284;-73
2021/09/14 09:51:40;;;;;;;;;;;19.40;99.90;;;;;;8337509;28;20292;-73
2021/09/14 09:55:42;;;;;;;;;;;19.50;99.90;;;;;;8339422;28;19931;-72
2021/09/14 09:59:44;;;;;;;;;;;19.60;99.90;;;;;;8336484;28;20285;-72
2021/09/14 10:04:03;;;;;;;;;;;19.80;99.90;;;;;;8333429;28;19933;-73
2021/09/14 10:08:08;;;;;;;;;;;19.90;99.90;;;;;;8335130;28;19932;-72
2021/09/14 10:12:19;;;;;;;;;;;20.00;99.90;;;;;;8334413;28;19932;-72
2021/09/14 10:16:22;;;;;;;;;;;20.10;99.90;;;;;;8342591;28;19932;-72
2021/09/14 10:20:25;;;;;;;;;;;20.20;99.90;;;;;;8340045;28;19925;-73
2021/09/14 10:24:27;;;;;;;;;;;20.30;99.90;;;;;;8333823;28;19933;-72
2021/09/14 10:28:39;;;;;;;;;;;20.40;99.90;;;;;;8339158;28;19936;-72
2021/09/14 10:32:44;;;;;;;;;;;20.40;99.90;;;;;;8331305;28;19936;-72
2021/09/14 10:36:58;;;;;;;;;;;20.40;99.90;;;;;;8326497;28;20360;-72
2021/09/14 10:41:04;;;;;;;;;;;20.40;99.90;;;;;;8333161;28;19932;-72
2021/09/14 10:45:07;;;;;;;;;;;20.50;99.90;;;;;;8336891;28;19952;-72
2021/09/14 10:49:13;;;;;;;;;;;20.60;99.90;;;;;;8330294;28;20360;-72
2021/09/14 10:53:21;;;;;;;;;;;20.60;99.90;;;;;;8330384;28;20186;-73
2021/09/14 10:57:33;;;;;;;;;;;20.60;99.90;;;;;;8331198;28;20373;-73
2021/09/14 11:01:35;;;;;;;14.80;9.70;;;20.60;99.90;;;;;;8337902;28;20427;-73
2021/09/14 11:05:37;;;;;;;;;;;20.70;99.90;;;;;;8336103;28;19921;-73
2021/09/14 11:09:39;;;;;;;;;;;20.70;99.90;;;;;;8329848;28;19961;-72
2021/09/14 11:13:41;;;;;;;;;;;20.80;99.90;;;;;;8329571;28;19950;-73
2021/09/14 11:17:46;;;;;;;;;;;20.80;99.90;;;;;;8332215;28;20336;-72
2021/09/14 11:21:48;;;;;;;;;;;20.70;99.90;;;;;;8335380;28;19928;-71
2021/09/14 11:25:51;;;;;;;;;;;20.80;99.90;;;;;;8335922;28;19936;-72
2021/09/14 11:29:54;;;;;;;;;;;20.70;99.90;;;;;;8342874;28;19928;-72
2021/09/14 11:33:56;;;;;;;;;;;20.70;99.90;;;;;;8333263;28;19928;-73
2021/09/14 11:37:59;;;;;;;;;;;20.80;99.90;;;;;;8331769;28;19921;-73
2021/09/14 11:42:01;;;;;;;;;;;20.80;99.90;;;;;;8329844;28;19920;-72
2021/09/14 11:46:13;;;;;;;;;;;20.90;99.90;;;;;;8337678;28;20274;-73
2021/09/14 11:50:24;;;;;;;;;;;21.10;99.90;;;;;;8331327;28;19928;-72
2021/09/14 11:54:31;;;;;;;;;;;21.20;99.90;;;;;;8333508;28;19924;-72
2021/09/14 11:58:34;;;;;;;;;;;21.40;99.90;;;;;;8334684;28;19928;-73
2021/09/14 12:02:36;;;;;;;;;;;21.50;99.90;;;;;;8342839;28;19959;-73
2021/09/14 12:06:37;;;;;;;;;;;21.50;99.90;;;;;;8345181;28;19932;-73
2021/09/14 12:10:43;;;;;;;;;;;21.60;99.90;;;;;;8334919;28;19921;-73
2021/09/14 12:14:45;;;;;;;;;;;21.60;99.90;;;;;;8331839;28;20353;-72
2021/09/14 12:18:47;;;;;;;;;;;21.60;99.90;;;;;;8328811;28;19929;-72
2021/09/14 12:22:48;;;;;;;;;;;21.60;99.90;;;;;;8334413;28;19929;-74
2021/09/14 12:26:55;;;;;;;;;;;21.50;99.90;;;;;;8338219;28;19928;-73
2021/09/14 12:30:57;;;;;;;;;;;21.50;99.90;;;;;;8330275;28;19936;-73
2021/09/14 12:34:59;;;;;;;;;;;21.40;99.90;;;;;;8332864;28;19975;-73
2021/09/14 12:39:00;;;;;;;;;;;21.40;99.90;;;;;;8332170;28;19929;-73
2021/09/14 12:43:02;;;;;;;;;;;21.40;99.90;;;;;;8334771;28;19921;-73
2021/09/14 12:47:04;;;;;;;;;;;21.30;99.90;;;;;;8339253;28;19925;-73
2021/09/14 12:51:05;;;;;;;;;;;21.30;99.90;;;;;;8337234;28;19924;-72
2021/09/14 12:55:07;;;;;;;;;;;21.30;99.90;;;;;;8338236;28;19921;-72
2021/09/14 12:59:09;;;;;;;;;;;21.30;99.90;;;;;;8342715;28;19929;-73
2021/09/14 13:03:12;;;;;;;;;;;21.20;99.90;;;;;;8339240;28;19925;-73
2021/09/14 13:07:13;;;;;;;;;;;21.30;99.90;;;;;;8341353;28;19969;-73
2021/09/14 13:11:15;;;;;;;;;;;21.30;99.90;;;;;;8351502;28;20284;-73
2021/09/14 13:19:37;;;;;;;;;;;21.30;99.90;;;;;;8340563;28;19925;-73
2021/09/14 13:23:40;;;;;;;;;;;21.30;99.90;;;;;;8338422;28;19986;-72
2021/09/14 13:27:42;;;;;;;;;;;21.40;99.90;;;;;;8336839;28;19936;-73
2021/09/14 13:31:44;;;;;;;;;;;21.40;99.90;;;;;;8340879;28;19928;-73
2021/09/14 13:35:45;;;;;;;;;;;21.40;99.90;;;;;;8337865;28;19925;-73
2021/09/14 13:39:47;;;;;;;;;;;21.40;99.90;;;;;;8338628;28;19928;-72
2021/09/14 13:43:51;;;;;;;;;;;21.40;99.90;;;;;;8332985;28;19978;-72
2021/09/14 13:47:52;;;;;;;;;;;21.40;99.90;;;;;;8345226;28;19924;-73
2021/09/14 13:51:54;;;;;;;;;;;21.40;99.90;;;;;;8333020;28;19924;-73
2021/09/14 13:55:56;;;;;;;;;;;21.40;99.90;;;;;;8345162;28;19932;-73
2021/09/14 13:59:58;;;;;;;;;;;21.40;99.90;;;;;;8338843;28;19929;-73
2021/09/14 14:03:59;;;;;;;;;;;21.40;99.90;;;;;;8334437;28;19975;-73
2021/09/14 14:08:01;;;;;;;;;;;21.50;99.90;;;;;;8336810;28;19956;-73
2021/09/14 14:12:03;;;;;;;;;;;21.50;99.90;;;;;;8345133;28;19924;-73
2021/09/14 14:16:05;;;;;;;;;;;21.50;99.90;;;;;;8331669;28;19924;-73
2021/09/14 14:20:07;;;;;;;;;;;21.50;99.90;;;;;;8333656;28;19928;-73
2021/09/14 14:24:08;;;;;;;;;;;21.40;99.90;;;;;;8328778;28;20434;-73
2021/09/14 14:28:10;;;;;;;;;;;21.40;99.90;;;;;;8337596;28;19921;-73
2021/09/14 14:32:13;;;;;;;;;;;21.40;99.90;;;;;;8324727;28;20287;-72
2021/09/14 14:36:14;;;;;;;;;;;21.40;99.90;;;;;;8323352;28;19987;-73
2021/09/14 14:40:16;;;;;;;;;;;21.40;99.90;;;;;;8327493;28;20222;-73
2021/09/14 14:44:18;;;;;;;;;;;21.40;99.90;;;;;;8323731;28;19921;-73
2021/09/14 14:48:19;;;;;;;;;;;21.30;99.90;;;;;;8329855;28;19931;-73
2021/09/14 14:52:21;;;;;;;;;;;21.30;99.90;;;;;;8329805;28;19925;-73
2021/09/14 14:56:22;;;;;;;;;;;21.30;99.90;;;;;;8323491;28;19966;-73
2021/09/14 15:00:24;;;;;;;;;;;21.30;99.90;;;;;;8334663;28;20280;-73
2021/09/14 15:04:26;;;;;;;;;;;21.30;99.90;;;;;;8326265;28;19932;-72
2021/09/14 15:08:28;;;;;;;;;;;21.30;99.90;;;;;;8332089;28;19943;-72
2021/09/14 15:12:29;;;;;;;;;;;21.30;99.90;;;;;;8326811;28;19921;-72
2021/09/14 15:16:31;;;;;;;;;;;21.30;99.90;;;;;;8327964;28;19929;-73
2021/09/14 15:20:33;;;;;;;;;;;21.30;99.90;;;;;;8327826;28;19925;-73
2021/09/14 15:24:35;;;;;;;;;;;21.30;99.90;;;;;;8324363;28;19940;-73
2021/09/14 15:28:36;;;;;;;;;;;21.30;99.90;;;;;;8328728;28;19986;-73
2021/09/14 15:32:38;;;;;;;;;;;21.30;99.90;;;;;;8322864;28;20361;-72
2021/09/14 15:36:40;;;;;;;;;;;21.30;99.90;;;;;;8325055;28;20004;-73
2021/09/14 15:40:42;;;;;;;;;;;21.30;99.90;;;;;;8322810;28;19921;-73
2021/09/14 15:44:44;;;;;;;;;;;21.30;99.90;;;;;;8329008;28;19925;-73
2021/09/14 15:48:45;;;;;;;;;;;21.20;99.90;;;;;;8333347;28;19939;-73
2021/09/14 15:52:49;;;;;;;;;;;21.20;99.90;;;;;;8325913;28;19936;-73
2021/09/14 15:56:51;;;;;;;;;;;21.20;99.90;;;;;;8334337;28;19960;-73
2021/09/14 16:00:52;;;;;;;;;;;21.10;99.90;;;;;;8329922;28;19948;-72
2021/09/14 16:04:54;;;;;;;;;;;21.10;99.90;;;;;;8320780;28;20310;-73
2021/09/14 16:08:56;;;;;;;;;;;21.10;99.90;;;;;;8322644;28;20284;-73
2021/09/14 16:12:58;;;;;;;;;;;21.00;99.90;;;;;;8325135;28;19929;-73
2021/09/14 16:16:59;;;;;;;;;;;21.00;99.90;;;;;;8326379;28;19996;-73
2021/09/14 16:21:01;;;;;;;;;;;21.00;99.90;;;;;;8328413;28;19921;-73
2021/09/14 16:25:03;;;;;;;;;;;21.00;99.90;;;;;;8326564;28;19951;-73
2021/09/14 16:29:05;;;;;;;;;;;21.00;99.90;;;;;;8326629;28;20422;-73
2021/09/14 16:33:07;;;;;;;;;;;21.00;99.90;;;;;;8329198;28;19924;-73
2021/09/14 16:37:08;;;;;;;;;;;21.00;99.90;;;;;;8323486;28;19982;-73
2021/09/14 16:41:10;;;;;;;;;;;20.90;99.90;;;;;;8335677;28;19921;-73
2021/09/14 16:45:12;;;;;;;;;;;20.90;99.90;;;;;;8324863;28;19920;-73
2021/09/14 16:49:17;;;;;;;;;;;20.90;99.90;;;;;;8325322;28;19929;-73
2021/09/14 16:53:19;;;;;;;;;;;20.90;99.90;;;;;;8324353;28;19979;-73
2021/09/14 16:57:21;;;;;;;;;;;20.90;99.90;;;;;;8321660;28;19925;-73
2021/09/14 17:01:22;;;;;;;;;;;20.90;99.90;;;;;;8321634;28;19921;-73
2021/09/14 17:05:25;;;;;;;;;;;20.90;99.90;;;;;;8321236;28;20066;-73
2021/09/14 17:09:27;;;;;;;;;;;20.90;99.90;;;;;;8320321;28;20223;-73
2021/09/14 17:13:29;;;;;;;;;;;20.90;99.90;;;;;;8321646;28;19925;-73
2021/09/14 17:17:30;;;;;;;;;;;20.90;99.90;;;;;;8320835;28;19929;-73
2021/09/14 17:21:33;;;;;;;;;;;20.90;99.90;;;;;;8326836;28;19924;-73
2021/09/14 17:25:34;;;;;;;;;;;20.90;99.90;;;;;;8324841;28;20343;-72
2021/09/14 17:29:36;;;;;;;;;;;20.90;99.90;;;;;;8332062;28;19956;-73
2021/09/14 17:33:38;;;;;;;;;;;20.90;99.90;;;;;;8328381;28;19925;-73
2021/09/14 17:37:39;;;;;;;;;;;20.90;99.90;;;;;;8329456;28;20367;-73
2021/09/14 17:41:41;;;;;;;;;;;20.90;99.90;;;;;;8327599;28;20305;-73
2021/09/14 17:45:47;;;;;;;;;;;20.90;99.90;;;;;;8325439;28;19921;-72
2021/09/14 17:49:49;;;;;;;;;;;20.90;99.90;;;;;;8337495;28;19925;-73
2021/09/14 17:53:51;;;;;;;;;;;20.90;99.90;;;;;;8328045;28;19921;-73
2021/09/14 17:57:52;;;;;;;;;;;20.90;99.90;;;;;;8331295;28;19928;-73
2021/09/14 18:01:54;;;;;;;;;;;20.90;99.90;;;;;;8338764;28;19929;-73
2021/09/14 18:05:56;;;;;;;;;;;20.90;99.90;;;;;;8323753;28;20012;-73
2021/09/14 18:09:57;;;;;;;;;;;20.90;99.90;;;;;;8328275;28;20447;-73
2021/09/14 18:13:59;;;;;;;;;;;20.80;99.90;;;;;;8326156;28;19921;-73
2021/09/14 18:18:01;;;;;;;;;;;20.80;99.90;;;;;;8325148;28;19920;-73
2021/09/14 18:22:04;;;;;;;;;;;20.80;99.90;;;;;;8325467;28;19928;-73
2021/09/14 18:26:06;;;;;;;;;;;20.80;99.90;;;;;;8328277;28;19921;-73
2021/09/14 18:30:08;;;;;;;;;;;20.80;99.90;;;;;;8328297;28;19925;-72
2021/09/14 18:34:09;;;;;;;;;;;20.80;99.90;;;;;;8324948;28;19978;-73
2021/09/14 18:38:11;;;;;;;;;;;20.80;99.90;;;;;;8325956;28;20140;-73
2021/09/14 18:42:13;;;;;;;;;;;20.80;99.90;;;;;;8324318;28;20376;-73
2021/09/14 18:46:14;;;;;;;;;;;20.70;99.90;;;;;;8323282;28;19940;-73
2021/09/14 18:50:16;;;;;;;;;;;20.70;99.90;;;;;;8324321;28;19925;-73
2021/09/14 18:54:18;;;;;;;;;;;20.70;99.90;;;;;;8327075;28;19932;-73
2021/09/14 18:58:20;;;;;;;;;;;20.70;99.90;;;;;;8338281;28;19925;-73
2021/09/14 19:02:22;;;;;;;;;;;20.70;99.90;;;;;;8324329;28;19939;-72
2021/09/14 19:06:24;;;;;;;;;;;20.60;99.90;;;;;;8322960;28;19937;-73
2021/09/14 19:10:25;;;;;;;;;;;20.50;99.90;;;;;;8322186;28;19921;-73
2021/09/14 19:14:27;;;;;;;;;;;20.60;99.90;;;;;;8334762;28;19921;-73
2021/09/14 19:18:29;;;;;;;;;;;20.50;99.90;;;;;;8328818;28;19921;-73
2021/09/14 19:22:31;;;;;;;;;;;20.50;99.90;;;;;;8331276;28;19936;-73
2021/09/14 19:26:33;;;;;;;;;;;20.40;99.90;;;;;;8330824;28;19920;-74
2021/09/14 19:30:34;;;;;;;;;;;20.40;99.90;;;;;;8328421;28;20395;-73
2021/09/14 19:34:36;;;;;;;;;;;20.40;99.90;;;;;;8328535;28;19928;-73
2021/09/14 19:38:38;;;;;;;;;;;20.40;99.90;;;;;;8324777;28;19924;-72
2021/09/14 19:42:39;;;;;;;;;;;20.30;99.90;;;;;;8336816;28;19925;-72
2021/09/14 19:46:42;;;;;;;;;;;20.30;99.90;;;;;;8330055;28;19921;-72
2021/09/14 19:50:43;;;;;;;;;;;20.20;99.90;;;;;;8327712;28;19947;-72
2021/09/14 19:54:45;;;;;;;;;;;20.20;99.90;;;;;;8324527;28;19929;-72
2021/09/14 19:58:46;;;;;;;;;;;20.10;99.90;;;;;;8325317;28;19932;-73
2021/09/14 20:02:48;;;;;;;;;;;20.10;99.90;;;;;;8330242;28;19929;-72
2021/09/14 20:06:50;;;;;;;;;;;20.10;99.90;;;;;;8327550;28;19920;-72
2021/09/14 20:10:52;;;;;;;;;;;20.10;99.90;;;;;;8332975;28;19974;-73
2021/09/14 20:14:53;;;;;;;;;;;20.10;99.90;;;;;;8322595;28;19935;-72
2021/09/14 20:18:55;;;;;;;;;;;20.10;99.90;;;;;;8327071;28;19928;-72
2021/09/14 20:22:58;;;;;;;;;;;20.10;99.90;;;;;;8329080;28;20379;-72
2021/09/14 20:27:00;;;;;;;;;;;20.00;99.90;;;;;;8340266;28;19928;-73
2021/09/14 20:31:02;;;;;;;;;;;20.00;99.90;;;;;;8332636;28;19920;-73
2021/09/14 20:35:04;;;;;;;;;;;20.00;99.90;;;;;;8330666;28;19974;-73
2021/09/14 20:39:06;;;;;;;;;;;20.00;99.90;;;;;;8326118;28;19929;-72
2021/09/14 20:43:07;;;;;;;;;;;20.00;99.90;;;;;;8325350;28;19972;-73
2021/09/14 20:47:09;;;;;;;;;;;20.00;99.90;;;;;;8331990;28;19928;-72
2021/09/14 20:51:11;;;;;;;;;;;20.00;99.90;;;;;;8332622;28;20256;-73
2021/09/14 20:55:12;;;;;;;;;;;20.00;99.90;;;;;;8336935;28;20384;-73
2021/09/14 20:59:14;;;;;;;;;;;19.90;99.90;;;;;;8323935;28;19921;-73
2021/09/14 21:03:16;;;;;;;;;;;19.90;99.90;;;;;;8343125;28;19975;-73
2021/09/14 21:07:17;;;;;;;;;;;20.00;99.90;;;;;;8355949;28;19921;-73
2021/09/14 21:11:19;;;;;;;;;;;19.90;99.90;;;;;;8357717;28;19976;-73
2021/09/14 21:15:21;;;;;;;;;;;19.90;99.90;;;;;;8357215;28;20398;-72
2021/09/14 21:19:22;;;;;;;;;;;19.90;99.90;;;;;;8359211;28;19921;-72
2021/09/14 21:23:24;;;;;;;;;;;19.90;99.90;;;;;;8352218;28;19925;-73
2021/09/14 21:27:26;;;;;;;;;;;19.90;99.90;;;;;;8373366;28;20320;-73
2021/09/14 21:31:28;;;;;;;;;;;19.90;99.90;;;;;;8351296;28;20240;-72
2021/09/14 21:35:29;;;;;;;;;;;19.90;99.90;;;;;;8350341;28;19921;-72
2021/09/14 21:39:31;;;;;;;;;;;19.80;99.90;;;;;;8352778;28;19921;-73
2021/09/14 21:43:33;;;;;;;;;;;19.80;99.90;;;;;;8343289;28;19921;-73
2021/09/14 21:47:35;;;;;;;;;;;19.80;99.90;;;;;;8355134;28;19925;-73
2021/09/14 21:51:37;;;;;;;;;;;19.80;99.90;;;;;;8360640;28;19921;-72
2021/09/14 21:55:39;;;;;;;;;;;19.80;99.90;;;;;;8358573;28;20323;-73
2021/09/14 21:59:40;;;;;;;;;;;19.70;99.90;;;;;;8357037;28;19921;-73
2021/09/14 22:03:42;;;;;;;;;;;19.70;99.90;;;;;;8364540;28;19932;-73
2021/09/14 22:07:44;;;;;;;;;;;19.70;99.90;;;;;;8358354;28;19975;-73
2021/09/14 22:11:45;;;;;;;;;;;19.70;99.90;;;;;;8349954;28;19948;-73
2021/09/14 22:15:47;;;;;;;;;;;19.60;99.90;;;;;;8350898;28;20372;-73
2021/09/14 22:19:48;;;;;;;;;;;19.60;99.90;;;;;;8349805;28;19925;-73
2021/09/14 22:23:51;;;;;;;;;;;19.60;99.90;;;;;;8349458;28;19968;-72
2021/09/14 22:27:53;;;;;;;;;;;19.60;99.90;;;;;;8353920;28;19967;-73
2021/09/14 22:31:54;;;;;;;;;;;19.60;99.90;;;;;;8351662;28;19936;-72
2021/09/14 22:35:56;;;;;;;;;;;19.60;99.90;;;;;;8353371;28;19928;-73
2021/09/14 22:39:58;;;;;;;;;;;19.60;99.90;;;;;;8358378;28;19921;-72
2021/09/14 22:44:01;;;;;;;;;;;19.60;99.90;;;;;;8338099;28;19930;-73
2021/09/14 22:48:03;;;;;;;;;;;19.60;99.90;;;;;;8350360;28;19947;-73
2021/09/14 22:52:04;;;;;;;;;;;19.60;99.90;;;;;;8350258;28;20367;-73
2021/09/14 22:56:06;;;;;;;;;;;19.60;99.90;;;;;;8340581;28;19983;-73
2021/09/14 23:00:08;;;;;;;;;;;19.60;99.90;;;;;;8353143;28;19920;-72
2021/09/14 23:04:10;;;;;;;;;;;19.60;99.90;;;;;;8349866;28;19927;-72
2021/09/14 23:08:12;;;;;;;;;;;19.60;99.90;;;;;;8353336;28;19921;-73
2021/09/14 23:12:13;;;;;;;;;;;19.60;99.90;;;;;;8354789;28;19932;-73
2021/09/14 23:16:15;;;;;;;;;;;19.60;99.90;;;;;;8354396;28;19925;-73
2021/09/14 23:20:17;;;;;;;;;;;19.60;99.90;;;;;;8345700;28;19921;-72
2021/09/14 23:24:18;;;;;;;;;;;19.60;99.90;;;;;;8345976;28;19924;-72
2021/09/14 23:28:20;;;;;;;;;;;19.60;99.90;;;;;;8342271;28;20655;-73